Time;durP1;ratioP1;P1;durP2;ratioP2;P2;SDS_P1;SDS_P2;PMS_P1;PMS_P2;Temp;Humidity;BMP_temperature;BMP_pressure;BME280_temperature;BME280_humidity;BME280_pressure;Samples;Min_cycle;Max_cycle;Signal;HPM_P1;HPM_P2
2022/12/17 13:06:44;;;;;;;44.03;24.97;;;0.10;77.00;;;3.42;55.73;102600.47;5053223;28;20198;-52
2022/12/17 13:09:32;;;;;;;42.83;26.77;;;0.30;76.90;;;3.29;54.91;102607.22;5053546;28;20583;-54
2022/12/17 13:12:24;;;;;;;41.83;24.37;;;0.30;75.00;;;3.05;55.39;102609.34;5053425;28;20175;-51
2022/12/17 13:15:12;;;;;;;45.30;25.97;;;0.30;74.10;;;2.81;55.78;102607.16;5053161;28;20201;-55
2022/12/17 13:17:53;;;;;;;40.60;25.10;;;0.20;74.20;;;2.59;56.36;102610.88;5053084;28;20188;-51
2022/12/17 13:20:27;;;;;;;42.43;24.97;;;0.10;74.30;;;2.44;57.31;102614.25;5056925;28;20234;-53
2022/12/17 13:23:23;;;;;;;45.77;25.40;;;0.00;74.40;;;2.33;57.22;102606.13;5057627;28;20194;-55
2022/12/17 13:26:21;;;;;;;41.30;26.10;;;-0.10;75.20;;;2.28;57.46;102608.13;5056709;28;20260;-55
2022/12/17 13:29:09;;;;;;;42.70;24.20;;;-0.20;75.50;;;2.33;57.45;102593.13;5056433;28;20223;-51
2022/12/17 13:31:56;;;;;;;43.10;24.70;;;-0.30;75.90;;;2.51;57.73;102602.63;5057717;28;20654;-53
2022/12/17 13:34:34;;;;;;;45.23;25.63;;;-0.30;76.50;;;2.61;57.28;102606.47;5057639;28;20244;-51
2022/12/17 13:37:12;;;;;;;40.77;23.57;;;-0.20;76.70;;;2.65;57.26;102597.56;5061319;28;20212;-52
2022/12/17 13:39:55;;;;;;;39.43;22.37;;;-0.20;76.40;;;2.79;57.15;102601.22;5065385;28;20219;-53
2022/12/17 13:42:28;;;;;;;44.53;24.57;;;-0.10;76.70;;;2.80;56.72;102605.50;5066969;28;20241;-55
2022/12/17 13:44:58;;;;;;;39.10;23.97;;;-0.10;76.10;;;2.74;56.20;102610.09;5065683;28;20201;-57
2022/12/17 13:47:29;;;;;;;45.00;25.50;;;-0.10;75.60;;;2.58;56.68;102604.00;5066805;28;20218;-54
2022/12/17 13:49:59;;;;;;;40.80;24.50;;;-0.10;75.50;;;2.50;57.24;102595.75;5066693;28;20224;-56
2022/12/17 13:52:46;;;;;;;41.93;24.53;;;-0.20;75.40;;;2.45;57.16;102602.91;5063261;28;20203;-52
2022/12/17 13:55:20;;;;;;;43.17;25.47;;;-0.20;75.60;;;2.31;57.12;102607.97;5056635;28;20226;-53
2022/12/17 13:57:49;;;;;;;47.37;26.43;;;-0.30;75.70;;;2.20;57.68;102605.06;5057068;28;20631;-52
2022/12/17 14:00:24;;;;;;;42.23;23.30;;;-0.30;76.00;;;2.14;57.75;102607.94;5056656;28;20271;-52
2022/12/17 14:02:52;;;;;;;42.30;23.67;;;-0.40;75.60;;;2.16;57.60;102603.53;5056791;28;20209;-54
2022/12/17 14:05:33;;;;;;;42.07;24.30;;;-0.50;76.00;;;2.17;57.82;102607.78;5056510;28;20242;-52
2022/12/17 14:08:04;;;;;;;34.87;21.13;;;-0.50;76.50;;;2.12;57.81;102609.75;5057350;28;20304;-53
2022/12/17 14:10:33;;;;;;;40.33;22.27;;;-0.60;76.70;;;2.09;57.80;102607.34;5056647;28;20286;-54
2022/12/17 14:13:07;;;;;;;41.07;22.87;;;-0.50;76.60;;;1.98;58.88;102607.00;5056099;28;20195;-54
2022/12/17 14:15:34;;;;;;;42.07;21.47;;;-0.60;77.10;;;1.95;58.48;102607.13;5056473;28;20206;-53
2022/12/17 14:18:03;;;;;;;41.80;22.37;;;-0.70;76.70;;;1.98;58.99;102607.00;5056499;28;20194;-53
2022/12/17 14:20:34;;;;;;;38.53;20.00;;;-0.70;77.30;;;1.99;58.55;102608.69;5056458;28;20626;-51
2022/12/17 14:23:05;;;;;;;35.53;20.70;;;-0.70;77.30;;;1.98;58.83;102612.19;5055899;28;20695;-59
2022/12/17 14:25:37;;;;;;;37.07;20.63;;;-0.70;77.50;;;1.97;58.93;102610.53;5056126;28;20191;-54
2022/12/17 14:28:20;;;;;;;40.13;21.43;;;-0.70;77.60;;;1.82;59.14;102603.44;5056196;28;20616;-52
2022/12/17 14:30:48;;;;;;;37.57;21.67;;;-0.70;77.50;;;1.81;58.87;102609.53;5055127;28;20200;-55
2022/12/17 14:33:37;;;;;;;40.00;22.53;;;-0.80;77.50;;;1.81;59.28;102625.97;5056033;28;20336;-54
2022/12/17 14:36:08;;;;;;;39.13;21.17;;;-0.80;77.80;;;1.86;59.38;102612.75;5055616;28;20231;-53
2022/12/17 14:38:35;;;;;;;38.63;21.17;;;-0.80;77.90;;;1.90;59.18;102622.09;5036173;28;20211;-53
2022/12/17 14:44:00;;;;;;;40.57;21.60;;;-0.80;78.10;;;2.10;58.50;102621.97;5035622;28;20254;-53
2022/12/17 14:46:31;;;;;;;40.03;22.87;;;-0.80;78.50;;;2.13;58.92;102627.03;5046435;28;20198;-54
2022/12/17 14:49:01;;;;;;;37.10;20.97;;;-0.70;78.50;;;2.16;58.18;102632.09;5056187;28;20690;-52
2022/12/17 14:51:32;;;;;;;37.40;20.20;;;-0.70;78.30;;;2.05;58.60;102623.97;5055396;28;20667;-52
2022/12/17 14:54:31;;;;;;;42.57;22.40;;;-0.70;77.90;;;2.03;58.67;102631.84;5056058;28;20201;-51
2022/12/17 14:57:04;;;;;;;38.97;21.17;;;-0.70;78.10;;;2.03;58.46;102636.19;5055437;28;20249;-52
2022/12/17 14:59:34;;;;;;;38.13;20.37;;;-0.70;78.00;;;1.93;58.86;102632.31;5054563;28;20234;-52
2022/12/17 15:02:14;;;;;;;34.23;19.70;;;-0.70;77.80;;;1.88;58.91;102635.13;5054737;28;20648;-55
2022/12/17 15:04:41;;;;;;;38.00;20.53;;;-0.80;77.80;;;1.78;59.73;102620.09;5055520;28;20619;-51
2022/12/17 15:07:14;;;;;;;41.47;21.50;;;-0.80;78.00;;;1.77;59.43;102626.19;5055369;28;20675;-54
2022/12/17 15:09:44;;;;;;;32.77;19.33;;;-0.80;78.30;;;1.76;59.13;102627.94;5052130;28;20648;-54
2022/12/17 15:12:19;;;;;;;41.67;22.40;;;-0.80;78.20;;;1.76;59.68;102638.31;5052562;28;20198;-51
2022/12/17 15:14:46;;;;;;;38.97;20.63;;;-0.80;78.40;;;1.84;59.16;102630.16;5052777;28;20658;-52
2022/12/17 15:17:14;;;;;;;40.50;19.73;;;-0.80;78.30;;;1.89;59.14;102636.00;5055235;28;20266;-53
2022/12/17 15:19:41;;;;;;;41.93;21.03;;;-0.90;78.30;;;1.91;59.10;102636.75;5057422;28;20216;-55
2022/12/17 15:22:14;;;;;;;45.43;21.87;;;-0.90;78.60;;;1.92;59.43;102633.25;5055906;28;20207;-54
2022/12/17 15:24:42;;;;;;;40.43;21.80;;;-0.90;78.50;;;1.99;58.90;102638.09;5055412;28;20262;-54
2022/12/17 15:27:13;;;;;;;42.80;24.83;;;-0.80;78.90;;;2.02;58.72;102634.50;5055309;28;20252;-54
2022/12/17 15:29:42;;;;;;;50.00;25.90;;;-0.80;78.90;;;1.96;59.05;102639.97;5059591;28;20220;-53
2022/12/17 15:32:16;;;;;;;41.63;23.30;;;-0.80;78.50;;;1.95;58.74;102643.47;5054996;28;20199;-54
2022/12/17 15:34:43;;;;;;;46.13;25.27;;;-0.80;78.40;;;1.98;58.96;102641.59;5055013;28;20203;-54
2022/12/17 15:37:11;;;;;;;49.37;23.53;;;-0.80;78.80;;;2.01;59.35;102644.06;5055060;28;20203;-53
2022/12/17 15:39:40;;;;;;;49.83;25.40;;;-0.80;78.90;;;1.93;59.34;102640.09;5053150;28;20502;-52
2022/12/17 15:44:55;;;;;;;47.80;25.27;;;-0.80;78.20;;;1.86;58.92;102634.38;5054737;28;20204;-51
2022/12/17 15:47:22;;;;;;;41.10;22.03;;;-0.80;78.20;;;1.83;59.38;102628.50;5054613;28;20207;-52
2022/12/17 15:49:51;;;;;;;45.03;23.57;;;-0.80;78.10;;;1.82;59.50;102635.44;5055102;28;20648;-52
2022/12/17 15:52:18;;;;;;;47.80;24.83;;;-0.90;78.00;;;1.86;59.36;102638.72;5054704;28;20218;-52
2022/12/17 15:54:45;;;;;;;42.10;24.33;;;-0.90;78.20;;;1.90;59.22;102640.28;5056311;28;20274;-53
2022/12/17 15:57:12;;;;;;;45.43;23.63;;;-0.90;78.30;;;1.85;58.76;102642.25;5055368;28;20238;-56
2022/12/17 15:59:44;;;;;;;42.03;23.00;;;-0.90;78.30;;;1.63;59.20;102641.53;5053641;28;20280;-55
2022/12/17 16:02:13;;;;;;;48.37;23.57;;;-1.00;77.80;;;1.58;59.82;102648.69;5054031;28;20191;-55
2022/12/17 16:04:40;;;;;;;48.60;25.57;;;-1.00;77.90;;;1.61;59.76;102652.00;5062524;28;20661;-51
2022/12/17 16:07:07;;;;;;;49.23;22.77;;;-1.00;78.20;;;1.62;59.33;102661.44;5065665;28;20200;-52
2022/12/17 16:09:34;;;;;;;49.33;25.03;;;-1.00;78.30;;;1.68;59.43;102655.16;5055079;28;20283;-52
2022/12/17 16:12:01;;;;;;;44.63;24.67;;;-1.00;79.20;;;1.71;59.42;102665.41;5055273;28;20253;-50
2022/12/17 16:14:28;;;;;;;52.20;25.23;;;-1.00;78.50;;;1.70;59.47;102658.50;5054748;28;20200;-52
2022/12/17 16:16:56;;;;;;;49.20;25.10;;;-1.00;78.80;;;1.66;59.46;102668.22;5054308;28;20195;-51
2022/12/17 16:19:25;;;;;;;49.37;25.33;;;-1.00;78.40;;;1.55;59.51;102669.56;5053144;28;20218;-52
2022/12/17 16:21:52;;;;;;;49.37;25.73;;;-1.10;77.90;;;1.36;59.18;102669.56;5054754;28;20198;-54
2022/12/17 16:24:19;;;;;;;46.80;23.17;;;-1.20;77.80;;;1.32;59.31;102668.00;5054261;28;20221;-53
2022/12/17 16:26:46;;;;;;;47.90;24.33;;;-1.20;77.90;;;1.40;60.19;102667.69;5053995;28;20229;-52
2022/12/17 16:29:13;;;;;;;46.90;25.00;;;-1.20;78.10;;;1.40;59.58;102670.28;5054262;28;20223;-51
2022/12/17 16:31:40;;;;;;;40.60;24.27;;;-1.20;78.30;;;1.40;59.96;102672.88;5054353;28;20203;-54
2022/12/17 16:34:09;;;;;;;46.47;23.43;;;-1.20;78.10;;;1.38;59.15;102671.16;5054294;28;20197;-53
2022/12/17 16:36:38;;;;;;;46.20;25.60;;;-1.30;78.30;;;1.36;59.10;102678.19;5051866;28;20226;-54
2022/12/17 16:39:05;;;;;;;50.23;24.40;;;-1.30;78.20;;;1.36;59.81;102675.59;5053297;28;20226;-51
2022/12/17 16:41:34;;;;;;;46.23;24.17;;;-1.30;78.40;;;1.35;59.14;102681.66;5053796;28;20643;-53
2022/12/17 16:44:01;;;;;;;45.73;26.67;;;-1.30;78.60;;;1.42;59.25;102678.81;5035316;28;20196;-52
2022/12/17 16:46:31;;;;;;;52.23;26.50;;;-1.30;78.80;;;1.50;59.57;102674.16;5044090;28;20192;-53
2022/12/17 16:49:05;;;;;;;48.80;24.87;;;-1.30;79.40;;;1.57;59.04;102673.78;5053790;28;20294;-52
2022/12/17 16:51:33;;;;;;;55.37;26.30;;;-1.20;79.30;;;1.64;58.81;102688.16;5053628;28;20183;-54
2022/12/17 16:54:07;;;;;;;48.43;25.70;;;-1.20;78.90;;;1.73;59.67;102682.59;5053134;28;20646;-53
2022/12/17 16:56:34;;;;;;;45.37;24.47;;;-1.20;78.90;;;1.80;58.54;102680.53;5054193;28;20199;-52
2022/12/17 16:59:08;;;;;;;48.03;24.43;;;-1.10;79.00;;;1.67;58.60;102690.63;5053426;28;20710;-51
2022/12/17 17:01:37;;;;;;;44.57;23.77;;;-1.10;77.90;;;1.51;58.41;102684.44;5053968;28;20543;-52
2022/12/17 17:04:07;;;;;;;44.83;24.33;;;-1.10;77.70;;;1.47;58.97;102682.06;5053777;28;20679;-53
2022/12/17 17:06:38;;;;;;;45.83;23.50;;;-1.20;77.40;;;1.44;59.25;102687.38;5054087;28;20199;-53
2022/12/17 17:09:07;;;;;;;45.53;25.10;;;-1.20;77.40;;;1.32;58.82;102679.25;5052852;28;20272;-53
2022/12/17 17:11:34;;;;;;;49.00;24.93;;;-1.30;77.60;;;1.29;59.24;102675.91;5053651;28;20274;-52
2022/12/17 17:14:02;;;;;;;51.23;25.30;;;-1.40;77.70;;;1.20;59.51;102684.97;5053016;28;20628;-52
2022/12/17 17:16:30;;;;;;;48.77;25.70;;;-1.40;78.00;;;1.22;60.31;102687.47;5053563;28;20268;-52
2022/12/17 17:18:57;;;;;;;51.93;24.47;;;-1.40;78.50;;;1.25;58.81;102692.53;5053012;28;20246;-54
2022/12/17 17:21:27;;;;;;;53.37;26.70;;;-1.40;78.40;;;1.19;58.79;102706.59;5054146;28;20195;-51
2022/12/17 17:23:58;;;;;;;50.67;24.33;;;-1.50;78.30;;;1.10;59.40;102704.41;5054054;28;20197;-55
2022/12/17 17:26:29;;;;;;;44.93;24.40;;;-1.50;78.30;;;1.01;59.36;102697.03;5053629;28;20223;-53
2022/12/17 17:28:56;;;;;;;41.80;22.87;;;-1.50;78.40;;;0.99;60.21;102700.56;5053855;28;20208;-53
2022/12/17 17:31:24;;;;;;;49.70;24.93;;;-1.60;78.30;;;0.95;59.72;102699.84;5053188;28;20206;-56
2022/12/17 17:34:13;;;;;;;42.43;22.23;;;-1.60;78.40;;;0.89;59.81;102705.31;5053282;28;20709;-52
2022/12/17 17:36:41;;;;;;;46.57;24.17;;;-1.60;79.20;;;0.85;60.09;102708.94;5052724;28;20540;-53
2022/12/17 17:39:09;;;;;;;45.00;23.47;;;-1.70;78.50;;;0.79;60.60;102709.19;5043163;28;20224;-54
2022/12/17 17:41:37;;;;;;;43.40;22.73;;;-1.80;78.60;;;0.72;60.35;102715.50;5032842;28;20188;-52
2022/12/17 17:44:07;;;;;;;44.17;23.37;;;-1.80;78.50;;;0.69;60.23;102713.03;5031768;28;20195;-53
2022/12/17 17:46:34;;;;;;;47.13;24.17;;;-1.80;78.60;;;0.67;60.30;102712.25;5044652;28;20198;-51
2022/12/17 17:49:06;;;;;;;45.93;23.90;;;-1.90;78.70;;;0.61;60.31;102705.59;5052266;28;20215;-52
2022/12/17 17:51:36;;;;;;;40.03;21.90;;;-1.90;78.70;;;0.64;60.34;102720.19;5053128;28;20282;-51
2022/12/17 17:54:23;;;;;;;45.90;24.33;;;-2.00;78.80;;;0.59;60.25;102727.28;5052758;28;20561;-52
2022/12/17 17:56:52;;;;;;;48.63;23.67;;;-2.00;79.20;;;0.55;60.24;102721.38;5052861;28;20231;-50
2022/12/17 17:59:19;;;;;;;52.10;25.20;;;-2.00;79.20;;;0.55;60.47;102730.88;5052458;28;20215;-53
2022/12/17 18:01:48;;;;;;;45.17;24.50;;;-2.00;79.10;;;0.53;60.63;102718.00;5052552;28;20219;-52
2022/12/17 18:04:19;;;;;;;47.30;24.73;;;-2.10;79.20;;;0.43;61.42;102736.53;5054733;28;20196;-52
2022/12/17 18:06:47;;;;;;;49.90;24.50;;;-2.10;79.40;;;0.41;60.66;102738.34;5056366;28;20174;-53
2022/12/17 18:09:34;;;;;;;45.40;23.80;;;-2.10;79.30;;;0.31;60.47;102732.69;5055632;28;20682;-56
2022/12/17 18:13:53;;;;;;;51.27;25.07;;;-2.20;79.20;;;0.36;60.58;102738.53;5056321;28;20199;-52
2022/12/17 18:14:51;;;;;;;48.90;26.23;;;-2.20;79.70;;;0.22;60.74;102738.22;5056073;28;20681;-52
2022/12/17 18:17:38;;;;;;;47.90;24.57;;;-2.20;79.50;;;0.21;61.29;102746.06;5056260;28;20218;-53
2022/12/17 18:20:08;;;;;;;42.87;23.47;;;-2.30;79.30;;;0.13;61.23;102737.75;5048400;28;20232;-52
2022/12/17 18:22:35;;;;;;;46.70;23.30;;;-2.30;79.40;;;0.15;60.54;102735.94;5034480;28;20187;-51
2022/12/17 18:25:03;;;;;;;51.17;26.17;;;-2.30;79.30;;;0.22;61.03;102739.97;5036988;28;20258;-52
2022/12/17 18:27:31;;;;;;;44.80;24.33;;;-2.40;79.40;;;0.24;60.99;102735.59;5055818;28;20557;-53
2022/12/17 18:29:58;;;;;;;45.57;25.23;;;-2.40;80.40;;;0.24;60.68;102740.78;5055168;28;20234;-55
2022/12/17 18:32:25;;;;;;;50.13;25.07;;;-2.40;79.50;;;0.26;61.13;102757.09;5055755;28;20192;-59
2022/12/17 18:34:52;;;;;;;49.63;24.63;;;-2.40;79.40;;;0.33;60.59;102753.38;5051608;28;20192;-56
2022/12/17 18:37:20;;;;;;;46.43;25.90;;;-2.40;80.20;;;0.38;60.97;102756.63;5045725;28;20272;-55
2022/12/17 18:39:47;;;;;;;47.83;25.70;;;-2.30;80.10;;;0.35;60.46;102744.66;5055694;28;20216;-55
2022/12/17 18:45:02;;;;;;;47.37;25.67;;;-2.30;79.40;;;0.34;60.22;102739.50;5057519;28;20196;-52
2022/12/17 18:47:29;;;;;;;43.67;24.67;;;-2.30;79.10;;;0.31;60.74;102737.06;5057603;28;20196;-53
2022/12/17 18:49:56;;;;;;;44.90;25.53;;;-2.30;78.90;;;0.30;59.44;102745.72;5057246;28;20326;-51
2022/12/17 18:52:23;;;;;;;40.40;24.33;;;-2.40;78.70;;;0.29;60.19;102738.84;5061009;28;20193;-50
2022/12/17 18:54:50;;;;;;;40.53;24.00;;;-2.40;78.80;;;0.27;59.66;102735.47;5057635;28;20187;-51
2022/12/17 18:57:17;;;;;;;44.77;25.07;;;-2.40;78.80;;;0.23;60.68;102739.94;5056674;28;20222;-51
2022/12/17 18:59:44;;;;;;;39.53;23.60;;;-2.40;78.80;;;0.21;60.36;102746.91;5056643;28;20268;-54
2022/12/17 19:02:13;;;;;;;43.50;25.70;;;-2.40;78.80;;;0.25;60.02;102752.81;5057279;28;20214;-52
2022/12/17 19:04:41;;;;;;;45.27;25.40;;;-2.40;79.20;;;0.36;61.63;102755.81;5057442;28;20253;-52
2022/12/17 19:07:09;;;;;;;44.07;25.50;;;-2.40;80.30;;;0.45;59.89;102763.25;5056501;28;20196;-55
2022/12/17 19:09:38;;;;;;;42.10;25.33;;;-2.30;79.90;;;0.40;59.54;102762.59;5056292;28;20628;-52
2022/12/17 19:12:08;;;;;;;39.40;24.27;;;-2.30;78.70;;;0.35;60.02;102759.31;5055454;28;20194;-52
2022/12/17 19:14:36;;;;;;;46.37;25.13;;;-2.30;78.10;;;0.34;59.89;102760.22;5056414;28;20192;-53
2022/12/17 19:17:04;;;;;;;41.43;24.57;;;-2.30;78.20;;;0.36;59.47;102761.84;5055007;28;20221;-52
2022/12/17 19:19:33;;;;;;;39.67;23.30;;;-2.30;78.70;;;0.39;59.13;102760.88;5054823;28;20215;-53
2022/12/17 19:22:00;;;;;;;45.47;25.10;;;-2.30;78.40;;;0.41;58.91;102764.25;5056796;28;20692;-52
2022/12/17 19:24:28;;;;;;;42.27;24.33;;;-2.30;78.00;;;0.34;59.57;102768.84;5067571;28;20659;-50
2022/12/17 19:26:55;;;;;;;42.33;25.17;;;-2.40;77.60;;;0.30;59.10;102762.09;5058537;28;20258;-52
2022/12/17 19:29:22;;;;;;;45.50;23.83;;;-2.40;77.50;;;0.32;59.77;102768.06;5055411;28;20208;-55
2022/12/17 19:31:49;;;;;;;39.40;23.87;;;-2.40;77.70;;;0.34;59.47;102770.56;5055158;28;20248;-54
2022/12/17 19:34:18;;;;;;;41.67;24.47;;;-2.40;77.70;;;0.30;59.03;102781.97;5054977;28;20201;-53
2022/12/17 19:36:47;;;;;;;48.60;26.27;;;-2.40;77.70;;;0.24;59.63;102769.25;5056031;28;20211;-52
2022/12/17 19:39:17;;;;;;;44.57;26.40;;;-2.50;77.60;;;0.20;58.85;102775.44;5055408;28;20218;-51
2022/12/17 19:41:45;;;;;;;43.07;25.40;;;-2.50;77.50;;;0.19;58.76;102773.75;5056003;28;20206;-52
2022/12/17 19:44:15;;;;;;;43.63;25.60;;;-2.50;77.50;;;0.16;58.53;102768.69;5055636;28;20194;-51
2022/12/17 19:46:43;;;;;;;46.23;25.93;;;-2.50;77.50;;;0.11;59.03;102768.00;5056124;28;20615;-51
2022/12/17 19:49:11;;;;;;;45.93;24.83;;;-2.60;77.30;;;0.06;59.30;102773.38;5055704;28;20271;-54
2022/12/17 19:51:42;;;;;;;45.57;27.10;;;-2.60;77.40;;;0.03;59.58;102782.97;5055479;28;20198;-53
2022/12/17 19:54:13;;;;;;;44.60;26.77;;;-2.60;77.60;;;-0.04;59.25;102785.81;5055225;28;20181;-54
2022/12/17 19:56:43;;;;;;;48.37;26.47;;;-2.60;77.70;;;-0.07;59.45;102788.50;5056527;28;20211;-52
2022/12/17 19:59:12;;;;;;;41.23;25.40;;;-2.70;77.60;;;-0.10;59.78;102788.63;5056729;28;20213;-52
2022/12/17 20:01:42;;;;;;;44.30;25.93;;;-2.70;77.60;;;-0.13;60.03;102788.72;5062643;28;20214;-51
2022/12/17 20:04:11;;;;;;;43.47;25.07;;;-2.70;77.50;;;-0.09;59.56;102800.66;5063220;28;20186;-55
2022/12/17 20:06:38;;;;;;;40.07;25.00;;;-2.70;77.50;;;-0.01;60.12;102803.81;5064325;28;20195;-54
2022/12/17 20:09:06;;;;;;;45.50;27.63;;;-2.70;78.40;;;0.05;58.97;102796.72;5064232;28;20273;-53
2022/12/17 20:11:36;;;;;;;46.90;27.10;;;-2.70;78.10;;;0.10;59.86;102805.13;5065828;28;20699;-53
2022/12/17 20:14:07;;;;;;;49.37;27.20;;;-2.60;78.80;;;0.16;59.26;102798.00;5065968;28;20191;-53
2022/12/17 20:16:38;;;;;;;44.63;26.50;;;-2.60;78.60;;;0.22;59.33;102790.00;5065644;28;20220;-54
2022/12/17 20:19:09;;;;;;;53.73;30.37;;;-2.60;78.20;;;0.23;57.53;102788.25;5061438;28;20281;-53
2022/12/17 20:21:36;;;;;;;42.97;25.87;;;-2.50;77.40;;;0.20;58.36;102798.72;5040487;28;20241;-55
2022/12/17 20:24:04;;;;;;;44.27;27.40;;;-2.50;77.00;;;0.23;58.64;102806.38;5035346;28;20207;-51
2022/12/17 20:26:31;;;;;;;43.03;26.87;;;-2.50;77.70;;;0.31;58.70;102814.72;5047092;28;20199;-53
2022/12/17 20:28:59;;;;;;;45.70;28.03;;;-2.40;77.70;;;0.31;57.21;102800.00;5036092;28;20227;-52
2022/12/17 20:31:27;;;;;;;44.43;26.70;;;-2.40;76.60;;;0.25;57.25;102810.59;5034503;28;20196;-52
2022/12/17 20:33:54;;;;;;;39.43;26.53;;;-2.40;75.30;;;0.13;57.10;102811.06;5034903;28;20598;-51
2022/12/17 20:36:22;;;;;;;47.27;26.43;;;-2.50;74.70;;;0.04;56.95;102815.72;5037090;28;20564;-52
2022/12/17 20:38:49;;;;;;;45.43;26.10;;;-2.50;74.80;;;-0.01;57.60;102811.56;5053792;28;20707;-53
2022/12/17 20:41:19;;;;;;;43.40;26.80;;;-2.60;75.00;;;-0.01;57.95;102811.56;5054131;28;20695;-52
2022/12/17 20:43:47;;;;;;;50.07;27.77;;;-2.60;75.30;;;-0.03;58.25;102810.78;5053858;28;20180;-51
2022/12/17 20:46:18;;;;;;;37.30;24.23;;;-2.70;75.30;;;-0.05;57.07;102807.38;5053413;28;20590;-53
2022/12/17 20:48:46;;;;;;;41.60;25.43;;;-2.70;75.50;;;-0.08;57.31;102817.88;5053856;28;20221;-55
2022/12/17 20:51:16;;;;;;;41.33;24.90;;;-2.80;75.40;;;-0.11;58.13;102812.78;5054813;28;20572;-51
2022/12/17 20:53:45;;;;;;;37.00;22.73;;;-2.80;75.60;;;-0.09;57.44;102815.31;5054304;28;20207;-51
2022/12/17 20:56:17;;;;;;;43.80;26.90;;;-2.80;75.90;;;-0.10;58.02;102819.66;5054502;28;20195;-52
2022/12/17 20:58:44;;;;;;;42.73;25.43;;;-2.90;76.00;;;-0.12;58.04;102810.28;5054245;28;20208;-52
2022/12/17 21:01:17;;;;;;;45.90;26.17;;;-2.90;75.90;;;-0.14;58.05;102815.47;5054672;28;20271;-51
2022/12/17 21:03:45;;;;;;;40.27;24.00;;;-2.90;75.90;;;-0.21;57.22;102821.78;5054411;28;20283;-52
2022/12/17 21:06:16;;;;;;;48.53;26.07;;;-3.00;75.60;;;-0.28;57.83;102817.72;5054252;28;20192;-52
2022/12/17 21:08:47;;;;;;;42.37;25.70;;;-2.90;75.70;;;-0.29;58.32;102820.38;5053667;28;20265;-53
2022/12/17 21:11:18;;;;;;;40.60;25.17;;;-3.00;75.70;;;-0.30;57.52;102816.94;5054802;28;20640;-52
2022/12/17 21:13:46;;;;;;;42.87;24.23;;;-3.00;75.80;;;-0.31;58.42;102820.41;5054765;28;20199;-52
2022/12/17 21:16:17;;;;;;;44.40;25.17;;;-3.00;76.00;;;-0.39;57.89;102816.41;5054676;28;20233;-51
2022/12/17 21:18:45;;;;;;;43.47;25.03;;;-3.10;75.90;;;-0.50;58.89;102819.34;5054428;28;20204;-52
2022/12/17 21:21:17;;;;;;;38.57;24.70;;;-3.10;76.10;;;-0.59;58.83;102811.91;5066899;28;20652;-53
2022/12/17 21:23:45;;;;;;;48.60;25.20;;;-3.20;76.10;;;-0.62;58.45;102813.78;5054196;28;20203;-53
2022/12/17 21:26:16;;;;;;;40.97;23.60;;;-3.20;76.30;;;-0.65;59.44;102814.72;5054054;28;20268;-52
2022/12/17 21:28:46;;;;;;;41.07;24.90;;;-3.20;76.40;;;-0.65;59.14;102822.47;5054194;28;20216;-51
2022/12/17 21:31:17;;;;;;;43.03;25.77;;;-3.20;76.70;;;-0.64;59.24;102816.38;5054254;28;20192;-54
2022/12/17 21:33:48;;;;;;;39.13;23.77;;;-3.20;76.90;;;-0.60;59.80;102823.16;5054842;28;20203;-53
2022/12/17 21:36:18;;;;;;;41.80;24.70;;;-3.20;77.00;;;-0.61;59.57;102830.94;5054199;28;20222;-52
2022/12/17 21:38:46;;;;;;;43.57;26.23;;;-3.20;77.00;;;-0.61;58.87;102830.94;5052833;28;20684;-51
2022/12/17 21:41:16;;;;;;;35.00;22.53;;;-3.20;77.10;;;-0.63;59.02;102843.94;5057744;28;20196;-51
2022/12/17 21:43:43;;;;;;;41.97;24.47;;;-3.20;77.20;;;-0.62;58.93;102844.78;5057829;28;20229;-54
2022/12/17 21:46:11;;;;;;;38.90;23.63;;;-3.20;77.10;;;-0.63;58.88;102846.53;5057618;28;20199;-53
2022/12/17 21:48:41;;;;;;;42.10;24.70;;;-3.20;77.10;;;-0.63;58.99;102836.19;5057461;28;20223;-53
2022/12/17 21:51:12;;;;;;;36.93;23.10;;;-3.20;77.00;;;-0.55;59.54;102847.13;5057503;28;20258;-53
2022/12/17 21:53:42;;;;;;;38.80;23.03;;;-3.20;77.10;;;-0.50;59.66;102834.84;5057868;28;20662;-53
2022/12/17 21:56:11;;;;;;;41.80;23.83;;;-3.20;77.20;;;-0.48;58.80;102833.09;5057584;28;20197;-52
2022/12/17 21:58:40;;;;;;;40.10;23.37;;;-3.20;77.20;;;-0.44;58.88;102839.84;5056975;28;20692;-51
2022/12/17 22:01:11;;;;;;;39.13;23.40;;;-3.10;77.20;;;-0.35;58.56;102844.69;5061976;28;20245;-52
2022/12/17 22:03:47;;;;;;;42.77;24.27;;;-3.10;77.40;;;-0.27;58.99;102847.03;5067413;28;20263;-52
2022/12/17 22:06:22;;;;;;;45.03;25.33;;;-3.10;77.60;;;-0.20;58.80;102849.34;5068966;28;20207;-54
2022/12/17 22:08:56;;;;;;;42.47;24.93;;;-3.00;77.70;;;-0.15;58.55;102846.59;5068154;28;20207;-55
2022/12/17 22:11:31;;;;;;;43.83;26.87;;;-3.00;77.50;;;-0.15;58.58;102842.28;5068506;28;20230;-54
2022/12/17 22:14:11;;;;;;;45.13;25.07;;;-3.00;77.10;;;-0.18;58.85;102842.38;5069392;28;20198;-54
2022/12/17 22:16:48;;;;;;;44.40;25.33;;;-3.00;76.90;;;-0.27;58.08;102834.94;5070350;28;20279;-55
2022/12/17 22:19:21;;;;;;;42.13;24.07;;;-3.00;76.80;;;-0.33;58.61;102842.03;5069583;28;20716;-53
2022/12/17 22:21:50;;;;;;;35.93;24.07;;;-3.00;76.70;;;-0.40;59.30;102841.41;5049092;28;20223;-52
2022/12/17 22:24:24;;;;;;;42.03;23.60;;;-3.00;76.80;;;-0.45;59.04;102842.50;5050399;28;20258;-54
2022/12/17 22:26:58;;;;;;;40.90;24.70;;;-3.10;76.70;;;-0.50;59.60;102845.19;5048864;28;20192;-53
2022/12/17 22:35:00;;;;;;;41.57;24.80;;;-3.10;77.10;;;-0.48;59.62;102848.59;5045642;28;20184;-51
2022/12/17 22:37:47;;;;;;;43.20;24.43;;;-3.10;77.30;;;-0.46;59.09;102849.41;5060497;28;20227;-52
2022/12/17 22:40:37;;;;;;;39.70;24.30;;;-3.10;78.10;;;-0.46;59.04;102849.41;5066582;28;20220;-51
2022/12/17 22:43:30;;;;;;;37.73;23.53;;;-3.10;77.30;;;-0.49;58.90;102852.06;5067674;28;20186;-51
2022/12/17 22:46:18;;;;;;;39.43;23.67;;;-3.10;77.20;;;-0.50;58.89;102858.13;5065670;28;20196;-51
2022/12/17 22:48:46;;;;;;;42.30;23.83;;;-3.10;77.10;;;-0.49;59.31;102862.41;5064882;28;20210;-51
2022/12/17 22:51:14;;;;;;;39.87;23.97;;;-3.10;77.20;;;-0.52;59.61;102857.34;5064415;28;20215;-53
2022/12/17 22:54:05;;;;;;;39.70;24.40;;;-3.10;77.20;;;-0.54;59.63;102858.28;5064899;28;20194;-51
2022/12/17 22:56:33;;;;;;;38.43;22.73;;;-3.10;77.10;;;-0.54;59.36;102848.78;5064676;28;20240;-55
2022/12/17 22:59:20;;;;;;;41.23;23.83;;;-3.10;77.10;;;-0.50;59.33;102849.56;5066126;28;20212;-53
2022/12/17 23:01:47;;;;;;;35.23;22.57;;;-3.10;77.20;;;-0.48;58.48;102846.03;5065675;28;20223;-52
2022/12/17 23:04:15;;;;;;;44.37;23.00;;;-3.10;77.20;;;-0.45;58.61;102853.66;5066050;28;20213;-54
2022/12/17 23:06:44;;;;;;;41.43;24.83;;;-3.10;77.20;;;-0.48;59.17;102851.19;5066571;28;20192;-54
2022/12/17 23:09:13;;;;;;;44.20;26.60;;;-3.20;77.00;;;-0.47;58.88;102839.94;5065771;28;20235;-55
2022/12/17 23:11:40;;;;;;;33.00;21.37;;;-3.20;77.00;;;-0.44;59.32;102842.44;5065751;28;20184;-53
2022/12/17 23:14:07;;;;;;;39.07;23.67;;;-3.20;77.00;;;-0.38;59.78;102849.97;5065680;28;20226;-51
2022/12/17 23:16:37;;;;;;;37.73;24.30;;;-3.20;77.50;;;-0.34;58.94;102841.22;5066014;28;20207;-53
2022/12/17 23:19:06;;;;;;;36.50;23.47;;;-3.20;77.40;;;-0.30;58.82;102837.63;5064964;28;20219;-55
2022/12/17 23:21:34;;;;;;;37.47;22.63;;;-3.10;77.40;;;-0.29;58.19;102834.16;5046618;28;20226;-54
2022/12/17 23:24:03;;;;;;;36.20;24.30;;;-3.10;77.30;;;-0.29;58.57;102841.91;5046840;28;20197;-52
2022/12/17 23:26:33;;;;;;;35.77;23.17;;;-3.10;76.90;;;-0.33;58.02;102829.97;5046933;28;20198;-52
2022/12/17 23:29:04;;;;;;;38.13;23.47;;;-3.10;76.30;;;-0.36;58.26;102843.03;5045747;28;20213;-53
2022/12/17 23:31:34;;;;;;;33.80;23.10;;;-3.10;76.20;;;-0.37;57.86;102843.91;5044850;28;20184;-55
2022/12/17 23:34:02;;;;;;;36.90;23.10;;;-3.10;76.20;;;-0.36;57.82;102848.19;5043519;28;20180;-52
2022/12/17 23:36:29;;;;;;;39.87;24.27;;;-3.10;76.20;;;-0.43;57.40;102857.06;5045200;28;20194;-52
2022/12/17 23:38:56;;;;;;;43.60;23.67;;;-3.20;75.50;;;-0.51;57.21;102859.03;5062112;28;20284;-52
2022/12/17 23:41:28;;;;;;;39.00;23.63;;;-3.20;75.30;;;-0.55;57.34;102857.47;5062980;28;20221;-51